Time;durP1;ratioP1;P1;durP2;ratioP2;P2;SDS_P1;SDS_P2;PMS_P1;PMS_P2;Temp;Humidity;BMP_temperature;BMP_pressure;BME280_temperature;BME280_humidity;BME280_pressure;Samples;Min_cycle;Max_cycle;Signal;HPM_P1;HPM_P2
2022/04/19 00:01:21;;;;;;;6.78;2.40;;;;;;;;;;5049719;28;20116;-57
2022/04/19 00:03:47;;;;;;;5.13;2.17;;;;;;;;;;5049420;28;20107;-58
2022/04/19 00:06:14;;;;;;;5.55;1.90;;;;;;;;;;5049559;28;20132;-59
2022/04/19 00:08:40;;;;;;;5.45;2.22;;;;;;;;;;5049899;28;20689;-58
2022/04/19 00:11:06;;;;;;;3.70;2.20;;;;;;;;;;5049724;28;20075;-57
2022/04/19 00:13:32;;;;;;;4.25;1.80;;;;;;;;;;5049403;28;20123;-58
2022/04/19 00:15:58;;;;;;;7.22;2.15;;;;;;;;;;5049984;28;20029;-57
2022/04/19 00:18:25;;;;;;;4.03;2.30;;;;;;;;;;5048478;28;20029;-57
2022/04/19 00:20:51;;;;;;;4.82;2.30;;;;;;;;;;5049918;28;20028;-56
2022/04/19 00:23:17;;;;;;;4.80;2.10;;;;;;;;;;5049107;28;20032;-58
2022/04/19 00:25:44;;;;;;;4.10;2.28;;;;;;;;;;5049548;28;20033;-58
2022/04/19 00:28:11;;;;;;;5.85;2.40;;;;;;;;;;5049029;28;20090;-57
2022/04/19 00:30:37;;;;;;;6.10;2.30;;;;;;;;;;5049340;28;20056;-57
2022/04/19 00:33:04;;;;;;;5.50;2.47;;;;;;;;;;5048224;28;20021;-56
2022/04/19 00:35:30;;;;;;;6.40;2.30;;;;;;;;;;5048344;28;20558;-57
2022/04/19 00:37:55;;;;;;;5.32;2.28;;;;;;;;;;5048417;28;20036;-55
2022/04/19 00:40:22;;;;;;;4.32;1.98;;;;;;;;;;5048121;28;20052;-58
2022/04/19 00:42:48;;;;;;;5.95;2.58;;;;;;;;;;5048478;28;20103;-52
2022/04/19 00:45:15;;;;;;;6.03;2.33;;;;;;;;;;5048155;28;20537;-57
2022/04/19 00:47:41;;;;;;;4.65;2.10;;;;;;;;;;5048651;28;20128;-58
2022/04/19 00:50:08;;;;;;;3.67;2.03;;;;;;;;;;5048066;28;20754;-57
2022/04/19 00:52:35;;;;;;;5.93;2.78;;;;;;;;;;5048208;28;20033;-57
2022/04/19 00:55:02;;;;;;;5.45;2.05;;;;;;;;;;5047777;28;20411;-58
2022/04/19 00:57:28;;;;;;;4.22;2.03;;;;;;;;;;5048518;28;20526;-57
2022/04/19 00:59:55;;;;;;;4.07;2.20;;;;;;;;;;5047932;28;20025;-57
2022/04/19 01:02:22;;;;;;;4.40;2.13;;;;;;;;;;5048685;28;20107;-58
2022/04/19 01:04:49;;;;;;;4.97;1.90;;;;;;;;;;5049047;28;20104;-58
2022/04/19 01:07:15;;;;;;;4.65;2.20;;;;;;;;;;5048448;28;20104;-56
2022/04/19 01:09:41;;;;;;;4.10;2.40;;;;;;;;;;5048397;28;20544;-58
2022/04/19 01:14:55;;;;;;;5.00;2.25;;;;;;;;;;5048706;28;20186;-58
2022/04/19 01:17:21;;;;;;;5.15;2.17;;;;;;;;;;5048389;28;20091;-57
2022/04/19 01:19:47;;;;;;;5.10;2.13;;;;;;;;;;5048412;28;20100;-58
2022/04/19 01:22:13;;;;;;;6.95;3.20;;;;;;;;;;5048608;28;20079;-58
2022/04/19 01:24:39;;;;;;;4.90;1.92;;;;;;;;;;5048738;28;20053;-58
2022/04/19 01:27:06;;;;;;;6.43;2.40;;;;;;;;;;5048681;28;20506;-57
2022/04/19 01:29:35;;;;;;;4.63;2.30;;;;;;;;;;5051272;28;20140;-55
2022/04/19 01:32:04;;;;;;;5.03;2.67;;;;;;;;;;5051820;28;20052;-57
2022/04/19 01:34:30;;;;;;;4.97;2.07;;;;;;;;;;5052678;28;20028;-58
2022/04/19 01:36:56;;;;;;;5.82;2.38;;;;;;;;;;5052296;28;20036;-57
2022/04/19 01:40:16;;;;;;;4.00;2.10;;;;;;;;;;5052341;28;20106;-58
2022/04/19 01:42:09;;;;;;;4.40;2.00;;;;;;;;;;5051895;28;20045;-58
2022/04/19 01:44:36;;;;;;;4.82;2.30;;;;;;;;;;5052417;28;20033;-58
2022/04/19 01:47:02;;;;;;;3.97;2.25;;;;;;;;;;5051340;28;20035;-57
2022/04/19 01:49:28;;;;;;;4.20;2.15;;;;;;;;;;5050922;28;20116;-58
2022/04/19 01:51:54;;;;;;;4.97;1.95;;;;;;;;;;5051864;28;20029;-57
2022/04/19 01:54:20;;;;;;;4.63;2.25;;;;;;;;;;5050250;28;20025;-57
2022/04/19 01:56:48;;;;;;;4.40;2.25;;;;;;;;;;5051475;28;20032;-56
2022/04/19 01:59:15;;;;;;;5.15;2.42;;;;;;;;;;5052118;28;20025;-58
2022/04/19 02:01:41;;;;;;;3.83;2.10;;;;;;;;;;5051867;28;20533;-57
2022/04/19 02:04:08;;;;;;;5.43;2.75;;;;;;;;;;5052021;28;20048;-57
2022/04/19 02:06:34;;;;;;;5.85;2.28;;;;;;;;;;5051843;28;20033;-56
2022/04/19 02:09:03;;;;;;;5.10;2.47;;;;;;;;;;5051475;28;20034;-58
2022/04/19 02:11:29;;;;;;;3.28;1.67;;;;;;;;;;5051645;28;20028;-56
2022/04/19 02:13:54;;;;;;;4.72;2.03;;;;;;;;;;5052042;28;20027;-56
2022/04/19 02:16:21;;;;;;;3.63;1.85;;;;;;;;;;5051864;28;20827;-57
2022/04/19 02:18:50;;;;;;;4.78;2.50;;;;;;;;;;5051759;28;20017;-56
2022/04/19 02:21:16;;;;;;;3.67;1.88;;;;;;;;;;5051940;28;20055;-58
2022/04/19 02:23:42;;;;;;;3.60;1.95;;;;;;;;;;5050733;28;20574;-56
2022/04/19 02:26:08;;;;;;;5.18;2.10;;;;;;;;;;5051919;28;20033;-57
2022/04/19 02:28:34;;;;;;;4.57;2.40;;;;;;;;;;5051385;28;20506;-55
2022/04/19 02:31:00;;;;;;;5.25;2.67;;;;;;;;;;5051650;28;20131;-56
2022/04/19 02:33:28;;;;;;;4.30;1.90;;;;;;;;;;5051043;28;20058;-55
2022/04/19 02:35:56;;;;;;;3.38;1.98;;;;;;;;;;5051574;28;20033;-57
2022/04/19 02:38:22;;;;;;;4.90;2.20;;;;;;;;;;5051176;28;20838;-58
2022/04/19 02:40:48;;;;;;;4.30;2.10;;;;;;;;;;5050861;28;20021;-58
2022/04/19 02:43:14;;;;;;;4.43;2.30;;;;;;;;;;5051507;28;20026;-58
2022/04/19 02:45:41;;;;;;;4.20;2.13;;;;;;;;;;5051717;28;20428;-57
2022/04/19 02:48:08;;;;;;;4.07;2.15;;;;;;;;;;5051326;28;20029;-53
2022/04/19 02:50:39;;;;;;;4.50;2.33;;;;;;;;;;5051509;28;20048;-55
2022/04/19 02:53:05;;;;;;;6.35;2.17;;;;;;;;;;5050972;28;20120;-58
2022/04/19 02:55:31;;;;;;;4.07;2.20;;;;;;;;;;5050949;28;20119;-56
2022/04/19 02:57:58;;;;;;;3.75;2.17;;;;;;;;;;5050636;28;20106;-57
2022/04/19 03:00:24;;;;;;;4.20;2.13;;;;;;;;;;5050974;28;20112;-56
2022/04/19 03:02:50;;;;;;;3.75;2.00;;;;;;;;;;5050831;28;20033;-58
2022/04/19 03:05:17;;;;;;;6.13;2.47;;;;;;;;;;5050617;28;20055;-58
2022/04/19 03:07:43;;;;;;;3.92;1.95;;;;;;;;;;5050998;28;20032;-58
2022/04/19 03:10:09;;;;;;;5.53;2.30;;;;;;;;;;5050675;28;20013;-58
2022/04/19 03:12:35;;;;;;;3.83;2.10;;;;;;;;;;5050893;28;20549;-58
2022/04/19 03:15:01;;;;;;;4.28;2.28;;;;;;;;;;5050664;28;20112;-57
2022/04/19 03:17:27;;;;;;;5.10;2.70;;;;;;;;;;5050654;28;20018;-56
2022/04/19 03:19:55;;;;;;;4.75;2.20;;;;;;;;;;5050468;28;20032;-58
2022/04/19 03:22:21;;;;;;;3.85;2.00;;;;;;;;;;5050165;28;20128;-58
2022/04/19 03:27:44;;;;;;;4.78;2.63;;;;;;;;;;5050806;28;20110;-58
2022/04/19 03:30:14;;;;;;;4.88;2.42;;;;;;;;;;5050407;28;20028;-56
2022/04/19 03:32:43;;;;;;;3.83;1.80;;;;;;;;;;5049889;28;20060;-58
2022/04/19 03:35:10;;;;;;;4.60;2.28;;;;;;;;;;5049369;28;20032;-57
2022/04/19 03:37:36;;;;;;;6.15;2.92;;;;;;;;;;5050259;28;20040;-56
2022/04/19 03:40:02;;;;;;;3.85;2.22;;;;;;;;;;5050290;28;20429;-56
2022/04/19 03:42:28;;;;;;;5.28;2.47;;;;;;;;;;5049940;28;20037;-57
2022/04/19 03:44:54;;;;;;;4.05;1.90;;;;;;;;;;5049354;28;20479;-57
2022/04/19 03:47:20;;;;;;;4.43;2.30;;;;;;;;;;5050379;28;20029;-58
2022/04/19 03:49:46;;;;;;;4.40;2.20;;;;;;;;;;5049845;28;20478;-57
2022/04/19 03:52:13;;;;;;;5.65;2.33;;;;;;;;;;5049937;28;21131;-58
2022/04/19 03:54:39;;;;;;;4.82;2.30;;;;;;;;;;5049868;28;20136;-57
2022/04/19 03:57:07;;;;;;;4.05;2.05;;;;;;;;;;5049733;28;20090;-58
2022/04/19 03:59:33;;;;;;;4.45;2.10;;;;;;;;;;5049811;28;20102;-56
2022/04/19 04:01:59;;;;;;;4.00;2.42;;;;;;;;;;5049419;28;20104;-57
2022/04/19 04:04:30;;;;;;;5.68;2.63;;;;;;;;;;5049599;28;20035;-58
2022/04/19 04:06:57;;;;;;;6.18;2.38;;;;;;;;;;5049521;28;20041;-58
2022/04/19 04:09:24;;;;;;;4.90;2.20;;;;;;;;;;5050489;28;20425;-57
2022/04/19 04:11:50;;;;;;;6.18;2.20;;;;;;;;;;5049755;28;20740;-57
2022/04/19 04:14:16;;;;;;;6.47;2.47;;;;;;;;;;5049478;28;20057;-57
2022/04/19 04:16:42;;;;;;;6.97;2.67;;;;;;;;;;5049996;28;20029;-55
2022/04/19 04:19:08;;;;;;;4.38;2.42;;;;;;;;;;5049584;28;20432;-57
2022/04/19 04:21:34;;;;;;;9.43;3.55;;;;;;;;;;5049201;28;20107;-57
2022/04/19 04:24:00;;;;;;;8.88;4.00;;;;;;;;;;5048999;28;20068;-56
2022/04/19 04:26:26;;;;;;;9.70;4.85;;;;;;;;;;5048729;28;20051;-57
2022/04/19 04:28:52;;;;;;;14.65;5.10;;;;;;;;;;5047642;28;20487;-54
2022/04/19 04:31:18;;;;;;;26.27;9.13;;;;;;;;;;5041886;28;20041;-55
2022/04/19 04:33:44;;;;;;;14.52;7.53;;;;;;;;;;5049143;28;20040;-59
2022/04/19 04:36:11;;;;;;;15.65;6.72;;;;;;;;;;5047771;28;20049;-58
2022/04/19 04:38:37;;;;;;;18.42;6.82;;;;;;;;;;5049888;28;20153;-57
2022/04/19 04:41:03;;;;;;;14.18;6.82;;;;;;;;;;5048505;28;20421;-58
2022/04/19 04:43:29;;;;;;;15.65;6.25;;;;;;;;;;5048410;28;20491;-57
2022/04/19 04:51:24;;;;;;;12.73;6.00;;;;;;;;;;5048874;28;20119;-58
2022/04/19 04:53:50;;;;;;;13.93;6.65;;;;;;;;;;5049583;28;20649;-58
2022/04/19 04:56:17;;;;;;;13.57;6.22;;;;;;;;;;5049580;28;20524;-58
2022/04/19 04:58:43;;;;;;;14.93;6.13;;;;;;;;;;5048967;28;20021;-57
2022/04/19 05:01:09;;;;;;;13.95;6.10;;;;;;;;;;5042604;28;20115;-57
2022/04/19 05:03:36;;;;;;;11.82;6.22;;;;;;;;;;5049514;28;20040;-56
2022/04/19 05:06:03;;;;;;;12.73;5.85;;;;;;;;;;5053258;28;20072;-57
2022/04/19 05:08:29;;;;;;;21.10;7.72;;;;;;;;;;5052848;28;20028;-53
2022/04/19 05:10:55;;;;;;;12.55;6.70;;;;;;;;;;5053250;28;20728;-54
2022/04/19 05:13:21;;;;;;;25.90;6.57;;;;;;;;;;5053131;28;20069;-56
2022/04/19 05:15:47;;;;;;;20.92;5.70;;;;;;;;;;5053012;28;20567;-58
2022/04/19 05:18:14;;;;;;;16.52;6.35;;;;;;;;;;5052708;28;20033;-55
2022/04/19 05:20:41;;;;;;;34.97;7.03;;;;;;;;;;5052902;28;20471;-56
2022/04/19 05:23:07;;;;;;;25.88;6.28;;;;;;;;;;5052449;28;20020;-57
2022/04/19 05:25:33;;;;;;;19.45;5.85;;;;;;;;;;5052847;28;20033;-58
2022/04/19 05:27:59;;;;;;;21.92;5.85;;;;;;;;;;5052796;28;20025;-56
2022/04/19 05:30:25;;;;;;;24.23;5.50;;;;;;;;;;5052313;28;20079;-57
2022/04/19 05:32:51;;;;;;;17.92;5.40;;;;;;;;;;5052398;28;20530;-57
2022/04/19 05:35:17;;;;;;;19.75;5.72;;;;;;;;;;5052482;28;20036;-58
2022/04/19 05:37:43;;;;;;;18.83;5.85;;;;;;;;;;5052867;28;20070;-57
2022/04/19 05:40:10;;;;;;;13.82;5.47;;;;;;;;;;5052583;28;20021;-56
2022/04/19 05:42:36;;;;;;;22.63;5.15;;;;;;;;;;5052678;28;20526;-53
2022/04/19 05:45:02;;;;;;;20.60;5.20;;;;;;;;;;5052418;28;20021;-55
2022/04/19 05:47:29;;;;;;;14.35;5.07;;;;;;;;;;5052218;28;20060;-57
2022/04/19 05:49:55;;;;;;;18.60;4.90;;;;;;;;;;5052372;28;20033;-57
2022/04/19 05:52:21;;;;;;;14.77;4.85;;;;;;;;;;5052341;28;20424;-57
2022/04/19 05:54:47;;;;;;;13.27;4.60;;;;;;;;;;5052180;28;20099;-58
2022/04/19 05:57:13;;;;;;;15.45;4.40;;;;;;;;;;5051964;28;20029;-57
2022/04/19 05:59:39;;;;;;;15.35;4.43;;;;;;;;;;5052376;28;20075;-57
2022/04/19 06:04:53;;;;;;;13.90;4.60;;;;;;;;;;5051715;28;20078;-57
2022/04/19 06:07:19;;;;;;;10.98;4.05;;;;;;;;;;5052331;28;20471;-57
2022/04/19 06:09:45;;;;;;;11.57;4.78;;;;;;;;;;5052247;28;20542;-57
2022/04/19 06:12:11;;;;;;;12.68;4.13;;;;;;;;;;5052022;28;20060;-57
2022/04/19 06:14:38;;;;;;;10.30;4.50;;;;;;;;;;5051019;28;20029;-58
2022/04/19 06:17:04;;;;;;;9.73;3.40;;;;;;;;;;5051934;28;20032;-57
2022/04/19 06:19:30;;;;;;;12.18;4.15;;;;;;;;;;5051901;28;20140;-56
2022/04/19 06:21:56;;;;;;;13.32;4.68;;;;;;;;;;5051722;28;20021;-57
2022/04/19 06:24:23;;;;;;;14.48;4.50;;;;;;;;;;5051815;28;20021;-57
2022/04/19 06:26:49;;;;;;;12.13;4.00;;;;;;;;;;5051196;28;20124;-57
2022/04/19 06:29:15;;;;;;;12.45;3.63;;;;;;;;;;5051850;28;20645;-56
2022/04/19 06:31:41;;;;;;;11.52;4.40;;;;;;;;;;5051039;28;20153;-58
2022/04/19 06:34:08;;;;;;;10.35;4.03;;;;;;;;;;5051985;28;20743;-57
2022/04/19 06:36:34;;;;;;;9.90;3.88;;;;;;;;;;5051666;28;20039;-57
2022/04/19 06:39:00;;;;;;;9.50;3.55;;;;;;;;;;5051322;28;20051;-57
2022/04/19 06:41:26;;;;;;;8.65;3.00;;;;;;;;;;5051593;28;20116;-57
2022/04/19 06:43:53;;;;;;;8.13;3.45;;;;;;;;;;5049646;28;20109;-58
2022/04/19 06:46:19;;;;;;;8.32;3.70;;;;;;;;;;5044412;28;20044;-56
2022/04/19 06:48:45;;;;;;;16.13;3.55;;;;;;;;;;5048814;28;20112;-58
2022/04/19 06:51:11;;;;;;;7.80;4.05;;;;;;;;;;5051064;28;20044;-58
2022/04/19 06:53:37;;;;;;;21.45;4.18;;;;;;;;;;5050958;28;20017;-58
2022/04/19 06:56:04;;;;;;;13.18;3.67;;;;;;;;;;5050953;28;20076;-58
2022/04/19 06:58:30;;;;;;;10.45;3.53;;;;;;;;;;5050940;28;20108;-57
2022/04/19 07:00:56;;;;;;;19.88;3.70;;;;;;;;;;5050832;28;20048;-56
2022/04/19 07:03:24;;;;;;;9.07;3.40;;;;;;;;;;5050830;28;20463;-56
2022/04/19 07:05:50;;;;;;;9.07;3.40;;;;;;;;;;5050506;28;20107;-58
2022/04/19 07:08:16;;;;;;;21.65;3.97;;;;;;;;;;5050715;28;20032;-58
2022/04/19 07:10:43;;;;;;;11.45;3.85;;;;;;;;;;5050667;28;20494;-57
2022/04/19 07:13:10;;;;;;;17.00;7.68;;;;;;;;;;5050083;28;20025;-58
2022/04/19 07:15:36;;;;;;;15.30;7.30;;;;;;;;;;5050420;28;20033;-56
2022/04/19 07:18:02;;;;;;;24.27;7.47;;;;;;;;;;5050507;28;20108;-57
2022/04/19 07:28:41;;;;;;;19.95;8.38;;;;;;;;;;5050707;28;20079;-56
2022/04/19 07:31:07;;;;;;;18.48;8.45;;;;;;;;;;5050512;28;20498;-58
2022/04/19 07:33:37;;;;;;;15.00;7.82;;;;;;;;;;5049797;28;20534;-57
2022/04/19 07:36:04;;;;;;;15.82;7.07;;;;;;;;;;5049705;28;20053;-54
2022/04/19 07:38:30;;;;;;;12.02;7.28;;;;;;;;;;5049742;28;20061;-57
2022/04/19 07:40:56;;;;;;;22.95;7.82;;;;;;;;;;5048792;28;20025;-57
2022/04/19 07:43:22;;;;;;;17.77;7.95;;;;;;;;;;5049830;28;20040;-57
2022/04/19 07:45:48;;;;;;;17.20;8.45;;;;;;;;;;5049898;28;20127;-58
2022/04/19 07:48:15;;;;;;;16.38;7.43;;;;;;;;;;5048561;28;20539;-57
2022/04/19 07:50:42;;;;;;;19.08;6.95;;;;;;;;;;5035892;28;20488;-57
2022/04/19 07:53:09;;;;;;;16.70;7.90;;;;;;;;;;5037205;28;20688;-57
2022/04/19 07:55:35;;;;;;;11.38;6.40;;;;;;;;;;5048604;28;20060;-58
2022/04/19 07:58:01;;;;;;;10.50;6.10;;;;;;;;;;5034989;28;20066;-58
2022/04/19 08:00:27;;;;;;;14.00;6.65;;;;;;;;;;5049687;28;20105;-58
2022/04/19 08:02:55;;;;;;;12.20;6.47;;;;;;;;;;5049174;28;21517;-57
2022/04/19 08:05:21;;;;;;;13.60;6.22;;;;;;;;;;5049570;28;20399;-56
2022/04/19 08:07:50;;;;;;;11.25;5.40;;;;;;;;;;5049416;28;20104;-58
2022/04/19 08:10:17;;;;;;;11.50;5.60;;;;;;;;;;5049359;28;20510;-57
2022/04/19 08:12:43;;;;;;;14.80;5.50;;;;;;;;;;5032327;28;20029;-57
2022/04/19 08:15:09;;;;;;;10.80;4.90;;;;;;;;;;5047608;28;20045;-58
2022/04/19 08:17:35;;;;;;;9.40;5.32;;;;;;;;;;5049609;28;20051;-56
2022/04/19 08:20:02;;;;;;;12.07;6.25;;;;;;;;;;5048932;28;20112;-56
2022/04/19 08:22:29;;;;;;;10.55;5.80;;;;;;;;;;5043866;28;20036;-57
2022/04/19 08:24:55;;;;;;;12.82;5.90;;;;;;;;;;5041459;28;20039;-57
2022/04/19 08:27:21;;;;;;;14.60;5.90;;;;;;;;;;5029870;28;20162;-56
2022/04/19 08:29:48;;;;;;;11.48;6.05;;;;;;;;;;5033669;28;20032;-54
2022/04/19 08:32:14;;;;;;;14.48;5.57;;;;;;;;;;5031609;28;20131;-56
2022/04/19 08:34:40;;;;;;;10.40;5.70;;;;;;;;;;5032947;28;20029;-55
2022/04/19 08:37:09;;;;;;;10.00;5.68;;;;;;;;;;5029887;28;20038;-57
2022/04/19 08:39:36;;;;;;;9.40;5.40;;;;;;;;;;5032411;28;20037;-57
2022/04/19 08:42:03;;;;;;;10.27;5.80;;;;;;;;;;5034063;28;20037;-56
2022/04/19 08:44:29;;;;;;;11.77;5.20;;;;;;;;;;5033900;28;20039;-57
2022/04/19 08:46:55;;;;;;;10.77;5.35;;;;;;;;;;5037007;28;20049;-56
2022/04/19 08:49:22;;;;;;;10.57;6.07;;;;;;;;;;5033041;28;20052;-56
2022/04/19 08:51:48;;;;;;;11.45;6.05;;;;;;;;;;5032572;28;20088;-57
2022/04/19 08:59:44;;;;;;;10.50;5.03;;;;;;;;;;5037365;28;20402;-56
2022/04/19 09:02:22;;;;;;;11.05;5.53;;;;;;;;;;5034116;28;20112;-58
2022/04/19 09:04:49;;;;;;;11.50;5.72;;;;;;;;;;5033170;28;20036;-55
2022/04/19 09:07:16;;;;;;;11.85;5.18;;;;;;;;;;5035461;28;20064;-57
2022/04/19 09:09:42;;;;;;;12.65;5.97;;;;;;;;;;5038052;28;20040;-56
2022/04/19 09:12:10;;;;;;;10.57;5.47;;;;;;;;;;5033265;28;20037;-56
2022/04/19 09:14:37;;;;;;;11.85;5.40;;;;;;;;;;5034534;28;20033;-56
2022/04/19 09:17:07;;;;;;;9.63;4.82;;;;;;;;;;5034060;28;20029;-57
2022/04/19 09:19:34;;;;;;;10.23;5.28;;;;;;;;;;5031646;28;20806;-57
2022/04/19 09:22:00;;;;;;;12.82;5.55;;;;;;;;;;5036784;28;20039;-57
2022/04/19 09:24:26;;;;;;;11.95;5.85;;;;;;;;;;5034376;28;20116;-61
2022/04/19 09:26:53;;;;;;;12.30;5.85;;;;;;;;;;5032710;28;20033;-58
2022/04/19 09:29:21;;;;;;;11.40;6.25;;;;;;;;;;5032550;28;20117;-54
2022/04/19 09:31:50;;;;;;;13.45;5.40;;;;;;;;;;5036127;28;20060;-57
2022/04/19 09:34:25;;;;;;;11.07;4.50;;;;;;;;;;5033468;28;20041;-62
2022/04/19 09:37:11;;;;;;;10.13;5.50;;;;;;;;;;5030320;28;20025;-57
2022/04/19 09:39:38;;;;;;;9.93;4.70;;;;;;;;;;5033694;28;20455;-58
2022/04/19 09:42:05;;;;;;;8.13;4.45;;;;;;;;;;5035589;28;20145;-59
2022/04/19 09:44:36;;;;;;;9.32;4.90;;;;;;;;;;5034513;28;20076;-58
2022/04/19 09:47:12;;;;;;;8.73;4.93;;;;;;;;;;5029860;28;20064;-58
2022/04/19 09:49:42;;;;;;;8.43;5.30;;;;;;;;;;5031977;28;20040;-57
2022/04/19 09:52:08;;;;;;;8.80;4.28;;;;;;;;;;5035788;28;20026;-57
2022/04/19 09:54:34;;;;;;;15.00;4.38;;;;;;;;;;5037326;28;20021;-56
2022/04/19 09:57:07;;;;;;;11.60;4.80;;;;;;;;;;5036489;28;20108;-58
2022/04/19 09:59:34;;;;;;;8.82;4.65;;;;;;;;;;5036834;28;20063;-58
2022/04/19 10:10:16;;;;;;;10.82;4.63;;;;;;;;;;5032907;28;20060;-59
2022/04/19 10:12:43;;;;;;;11.35;4.78;;;;;;;;;;5036758;28;20079;-59
2022/04/19 10:15:09;;;;;;;13.38;5.80;;;;;;;;;;5039679;28;20033;-59
2022/04/19 10:17:39;;;;;;;11.20;5.80;;;;;;;;;;5036414;28;20040;-61
2022/04/19 10:20:06;;;;;;;10.82;5.13;;;;;;;;;;5034689;28;20056;-60
2022/04/19 10:22:33;;;;;;;10.77;5.93;;;;;;;;;;5033566;28;20700;-58
2022/04/19 10:25:01;;;;;;;13.70;6.03;;;;;;;;;;5036197;28;20111;-60
2022/04/19 10:27:36;;;;;;;10.88;5.75;;;;;;;;;;5035634;28;20064;-59
2022/04/19 10:30:03;;;;;;;12.40;5.82;;;;;;;;;;5037430;28;20029;-59
2022/04/19 10:32:35;;;;;;;11.15;5.82;;;;;;;;;;5037540;28;20057;-59
2022/04/19 10:35:02;;;;;;;11.85;5.93;;;;;;;;;;5035136;28;20033;-59
2022/04/19 10:37:29;;;;;;;11.82;5.78;;;;;;;;;;5034212;28;20116;-56
2022/04/19 10:39:58;;;;;;;11.15;6.75;;;;;;;;;;5036810;28;20156;-58
2022/04/19 10:42:34;;;;;;;9.48;5.68;;;;;;;;;;5037500;28;20531;-56
2022/04/19 10:45:13;;;;;;;12.52;6.18;;;;;;;;;;5037223;28;20044;-57
2022/04/19 10:47:54;;;;;;;15.60;5.57;;;;;;;;;;5036926;28;20040;-57
2022/04/19 10:50:29;;;;;;;11.40;5.07;;;;;;;;;;5036894;28;20036;-58
2022/04/19 10:53:05;;;;;;;14.35;5.70;;;;;;;;;;5035464;28;20029;-57
2022/04/19 10:55:40;;;;;;;13.63;5.97;;;;;;;;;;5036883;28;20067;-56
2022/04/19 10:58:08;;;;;;;22.65;6.38;;;;;;;;;;5032137;28;20106;-57
2022/04/19 11:00:34;;;;;;;12.93;6.03;;;;;;;;;;5036047;28;20025;-57
2022/04/19 11:03:00;;;;;;;13.02;6.13;;;;;;;;;;5034236;28;20090;-57
2022/04/19 11:05:41;;;;;;;16.80;6.80;;;;;;;;;;5035473;28;20044;-58
2022/04/19 11:08:22;;;;;;;11.88;5.40;;;;;;;;;;5035913;28;20040;-57
2022/04/19 11:10:48;;;;;;;12.38;5.97;;;;;;;;;;5036409;28;20026;-60
2022/04/19 11:13:14;;;;;;;18.75;5.43;;;;;;;;;;5030110;28;20033;-59
2022/04/19 11:15:44;;;;;;;11.93;5.30;;;;;;;;;;5036449;28;20057;-59
2022/04/19 11:18:25;;;;;;;12.57;5.55;;;;;;;;;;5034818;28;20443;-60
2022/04/19 11:20:56;;;;;;;11.82;4.85;;;;;;;;;;5032255;28;20040;-60
2022/04/19 11:23:26;;;;;;;12.00;4.78;;;;;;;;;;5035611;28;20755;-59
2022/04/19 11:25:53;;;;;;;10.65;4.55;;;;;;;;;;5034312;28;20045;-59
2022/04/19 11:28:31;;;;;;;11.00;5.25;;;;;;;;;;5034018;28;20498;-60
2022/04/19 11:30:57;;;;;;;9.45;4.22;;;;;;;;;;5035214;28;20526;-58
2022/04/19 11:33:23;;;;;;;9.25;4.20;;;;;;;;;;5033107;28;20033;-60
2022/04/19 11:36:00;;;;;;;8.82;4.93;;;;;;;;;;5031149;28;20030;-58
2022/04/19 11:38:26;;;;;;;8.38;4.10;;;;;;;;;;5036848;28;20438;-58
2022/04/19 11:49:09;;;;;;;9.10;3.78;;;;;;;;;;5037276;28;20128;-57
2022/04/19 11:51:35;;;;;;;7.03;3.88;;;;;;;;;;5035476;28;20033;-57
2022/04/19 11:54:02;;;;;;;6.63;3.35;;;;;;;;;;5032957;28;20086;-58
2022/04/19 11:56:28;;;;;;;6.93;3.30;;;;;;;;;;5033680;28;20030;-57
2022/04/19 11:58:57;;;;;;;8.77;4.22;;;;;;;;;;5034303;28;20467;-58
2022/04/19 12:01:23;;;;;;;6.60;3.50;;;;;;;;;;5035868;28;21235;-58
2022/04/19 12:03:49;;;;;;;7.80;3.58;;;;;;;;;;5035381;28;20055;-57
2022/04/19 12:06:18;;;;;;;7.88;3.10;;;;;;;;;;5032381;28;20398;-58
2022/04/19 12:08:46;;;;;;;6.38;3.22;;;;;;;;;;5035900;28;20025;-57
2022/04/19 12:11:16;;;;;;;7.13;2.85;;;;;;;;;;5033412;28;20041;-57
2022/04/19 12:13:46;;;;;;;8.45;3.08;;;;;;;;;;5031960;28;20179;-57
2022/04/19 12:16:31;;;;;;;5.22;2.70;;;;;;;;;;5036577;28;20029;-57
2022/04/19 12:18:59;;;;;;;6.28;2.88;;;;;;;;;;5037420;28;20051;-57
2022/04/19 12:21:39;;;;;;;6.10;2.80;;;;;;;;;;5035211;28;20151;-56
2022/04/19 12:24:07;;;;;;;6.13;2.60;;;;;;;;;;5036291;28;20032;-61
2022/04/19 12:26:33;;;;;;;4.93;2.45;;;;;;;;;;5037214;28;20762;-57
2022/04/19 12:29:11;;;;;;;6.40;3.10;;;;;;;;;;5035051;28;20063;-57
2022/04/19 12:31:39;;;;;;;4.93;2.35;;;;;;;;;;5033743;28;20928;-57
2022/04/19 12:34:06;;;;;;;7.18;3.03;;;;;;;;;;5036496;28;20017;-57
2022/04/19 12:37:01;;;;;;;5.20;2.67;;;;;;;;;;5035393;28;20021;-57
2022/04/19 12:39:28;;;;;;;5.15;2.40;;;;;;;;;;5027743;28;20028;-57
2022/04/19 12:42:04;;;;;;;4.88;2.60;;;;;;;;;;5033760;28;20048;-57
2022/04/19 12:44:30;;;;;;;4.97;2.53;;;;;;;;;;5034864;28;20115;-58
2022/04/19 12:46:57;;;;;;;4.85;2.40;;;;;;;;;;5037151;28;20060;-59
2022/04/19 12:49:27;;;;;;;6.22;2.38;;;;;;;;;;5034678;28;20044;-59
2022/04/19 12:52:04;;;;;;;5.35;2.30;;;;;;;;;;5037293;28;20032;-59
2022/04/19 12:54:32;;;;;;;4.68;2.00;;;;;;;;;;5030648;28;20048;-58
2022/04/19 12:57:02;;;;;;;4.75;2.00;;;;;;;;;;5029784;28;20079;-56
2022/04/19 12:59:29;;;;;;;4.80;2.33;;;;;;;;;;5035865;28;20024;-58
2022/04/19 13:01:55;;;;;;;3.85;2.08;;;;;;;;;;5033967;28;20033;-59
2022/04/19 13:04:22;;;;;;;4.47;2.00;;;;;;;;;;5032788;28;20033;-59
2022/04/19 13:12:17;;;;;;;3.97;1.83;;;;;;;;;;5033086;28;20086;-58
2022/04/19 13:14:44;;;;;;;4.38;1.80;;;;;;;;;;5033564;28;20021;-59
2022/04/19 13:17:13;;;;;;;4.60;2.10;;;;;;;;;;5034426;28;20258;-58
2022/04/19 13:19:41;;;;;;;6.30;2.67;;;;;;;;;;5035405;28;20051;-59
2022/04/19 13:22:07;;;;;;;6.45;3.17;;;;;;;;;;5034461;28;20033;-58
2022/04/19 13:24:33;;;;;;;5.53;3.35;;;;;;;;;;5032139;28;20476;-58
2022/04/19 13:26:59;;;;;;;7.60;3.42;;;;;;;;;;5035248;28;20060;-58
2022/04/19 13:29:25;;;;;;;9.15;3.30;;;;;;;;;;5039127;28;20079;-58
2022/04/19 13:31:52;;;;;;;6.20;3.35;;;;;;;;;;5037511;28;20033;-60
2022/04/19 13:34:19;;;;;;;11.73;3.85;;;;;;;;;;5035147;28;20033;-58
2022/04/19 13:36:46;;;;;;;9.70;3.33;;;;;;;;;;5035630;28;20030;-59
2022/04/19 13:39:12;;;;;;;6.38;3.95;;;;;;;;;;5032468;28;20116;-59
2022/04/19 13:41:41;;;;;;;7.18;3.38;;;;;;;;;;5034973;28;20202;-59
2022/04/19 13:44:10;;;;;;;5.85;3.25;;;;;;;;;;5032920;28;20028;-59
2022/04/19 13:46:37;;;;;;;6.18;3.38;;;;;;;;;;5035585;28;20095;-59
2022/04/19 13:49:03;;;;;;;4.68;2.58;;;;;;;;;;5038528;28;20384;-59
2022/04/19 13:51:29;;;;;;;4.35;2.92;;;;;;;;;;5036675;28;20528;-59
2022/04/19 13:53:55;;;;;;;6.25;3.15;;;;;;;;;;5035249;28;20728;-59
2022/04/19 13:56:21;;;;;;;5.50;3.13;;;;;;;;;;5037026;28;20037;-59
2022/04/19 13:58:47;;;;;;;5.72;3.33;;;;;;;;;;5038684;28;20026;-59
2022/04/19 14:01:13;;;;;;;7.72;3.95;;;;;;;;;;5033061;28;20033;-60
2022/04/19 14:03:39;;;;;;;9.00;4.20;;;;;;;;;;5036359;28;20056;-59
2022/04/19 14:06:06;;;;;;;7.75;3.83;;;;;;;;;;5038373;28;20472;-60
2022/04/19 14:08:32;;;;;;;7.22;3.55;;;;;;;;;;5035613;28;20033;-59
2022/04/19 14:10:59;;;;;;;6.00;3.95;;;;;;;;;;5037730;28;20523;-59
2022/04/19 14:13:25;;;;;;;6.32;3.90;;;;;;;;;;5038307;28;20025;-60
2022/04/19 14:15:52;;;;;;;6.18;3.55;;;;;;;;;;5035957;28;20033;-60
2022/04/19 14:18:21;;;;;;;5.47;3.47;;;;;;;;;;5039638;28;20576;-59
2022/04/19 14:20:48;;;;;;;5.30;3.00;;;;;;;;;;5034941;28;20025;-61
2022/04/19 14:23:14;;;;;;;5.85;3.05;;;;;;;;;;5038323;28;20061;-59
2022/04/19 14:25:40;;;;;;;8.95;3.50;;;;;;;;;;5036153;28;20141;-59
2022/04/19 14:28:06;;;;;;;5.25;3.20;;;;;;;;;;5036268;28;20183;-59
2022/04/19 14:33:19;;;;;;;4.15;2.60;;;;;;;;;;5036727;28;20079;-59
2022/04/19 14:35:45;;;;;;;4.45;2.53;;;;;;;;;;5036065;28;20032;-59
2022/04/19 14:38:11;;;;;;;4.20;1.90;;;;;;;;;;5035745;28;20072;-59
2022/04/19 14:40:37;;;;;;;5.88;1.98;;;;;;;;;;5032986;28;20026;-58
2022/04/19 14:43:05;;;;;;;4.40;2.17;;;;;;;;;;5036861;28;20029;-59
2022/04/19 14:45:31;;;;;;;5.15;2.00;;;;;;;;;;5033273;28;20108;-59
2022/04/19 14:47:57;;;;;;;6.35;2.38;;;;;;;;;;5036712;28;20113;-58
2022/04/19 14:50:23;;;;;;;4.10;2.22;;;;;;;;;;5035153;28;20029;-59
2022/04/19 14:52:49;;;;;;;4.82;2.17;;;;;;;;;;5036275;28;20021;-59
2022/04/19 14:55:16;;;;;;;9.05;2.35;;;;;;;;;;5037531;28;20475;-60
2022/04/19 14:57:45;;;;;;;4.13;2.30;;;;;;;;;;5040740;28;20044;-60
2022/04/19 15:00:17;;;;;;;5.45;2.42;;;;;;;;;;5032793;28;20039;-59
2022/04/19 15:02:43;;;;;;;4.88;2.33;;;;;;;;;;5036087;28;20060;-59
2022/04/19 15:05:09;;;;;;;4.53;2.40;;;;;;;;;;5033709;28;21060;-59
2022/04/19 15:07:37;;;;;;;5.15;2.70;;;;;;;;;;5038027;28;20119;-59
2022/04/19 15:10:04;;;;;;;7.13;2.88;;;;;;;;;;5032294;28;20048;-59
2022/04/19 15:12:30;;;;;;;6.18;2.83;;;;;;;;;;5036903;28;20336;-59
2022/04/19 15:14:57;;;;;;;10.25;3.08;;;;;;;;;;5033063;28;20028;-59
2022/04/19 15:17:23;;;;;;;5.53;2.60;;;;;;;;;;5033308;28;20041;-60
2022/04/19 15:19:49;;;;;;;6.78;2.83;;;;;;;;;;5035431;28;20392;-59
2022/04/19 15:22:17;;;;;;;7.47;2.92;;;;;;;;;;5034312;28;20078;-58
2022/04/19 15:24:43;;;;;;;6.13;2.67;;;;;;;;;;5036287;28;20034;-58
2022/04/19 15:27:09;;;;;;;6.57;3.05;;;;;;;;;;5034794;28;20550;-59
2022/04/19 15:29:35;;;;;;;5.72;2.42;;;;;;;;;;5041417;28;20025;-59
2022/04/19 15:32:01;;;;;;;8.73;2.78;;;;;;;;;;5032478;28;20548;-61